createdAt,value
2018-06-19T00:00:08.773Z,0.00
2018-06-19T00:01:08.706Z,0.00
2018-06-19T00:03:02.001Z,0.00
2018-06-19T00:04:01.920Z,0.00
2018-06-19T00:05:55.303Z,0.00
2018-06-19T00:06:55.135Z,0.00
2018-06-19T00:08:48.432Z,0.00
2018-06-19T00:09:48.350Z,0.00
2018-06-19T00:11:41.647Z,0.00
2018-06-19T00:12:41.565Z,0.00
2018-06-19T00:14:34.841Z,0.00
2018-06-19T00:15:34.779Z,0.00
2018-06-19T00:17:28.076Z,0.00
2018-06-19T00:18:27.992Z,0.00
2018-06-19T00:20:21.270Z,0.00
2018-06-19T00:21:21.208Z,0.00
2018-06-19T00:23:14.504Z,0.00
2018-06-19T00:24:14.422Z,0.00
2018-06-19T00:26:07.804Z,0.00
2018-06-19T00:27:07.638Z,0.00
2018-06-19T00:29:00.935Z,0.00
2018-06-19T00:30:00.851Z,0.00
2018-06-19T00:31:54.145Z,0.00
2018-06-19T00:32:54.070Z,0.00
2018-06-19T00:34:47.343Z,0.00
2018-06-19T00:35:47.279Z,0.00
2018-06-19T00:37:40.567Z,0.00
2018-06-19T00:38:40.484Z,0.00
2018-06-19T00:40:33.762Z,0.00
2018-06-19T00:41:33.697Z,0.00
2018-06-19T00:43:26.996Z,0.00
2018-06-19T00:44:26.910Z,0.00
2018-06-19T00:46:20.185Z,0.00
2018-06-19T00:47:20.125Z,0.00
2018-06-19T00:49:13.526Z,0.00
2018-06-19T00:50:13.342Z,0.00
2018-06-19T00:52:06.633Z,0.00
2018-06-19T00:53:06.553Z,0.00
2018-06-19T00:54:59.933Z,0.00
2018-06-19T00:55:59.765Z,0.00
2018-06-19T00:57:53.052Z,0.00
2018-06-19T00:58:52.969Z,0.00
2018-06-19T01:00:46.248Z,0.00
2018-06-19T01:01:46.185Z,0.00
2018-06-19T01:03:39.482Z,0.00
2018-06-19T01:04:39.399Z,0.00
2018-06-19T01:06:32.786Z,0.00
2018-06-19T01:07:32.614Z,0.00
2018-06-19T01:09:25.908Z,0.00
2018-06-19T01:10:25.828Z,0.00
2018-06-19T01:12:19.121Z,0.00
2018-06-19T01:13:19.040Z,0.00
2018-06-19T01:15:12.316Z,0.00
2018-06-19T01:16:12.254Z,0.00
2018-06-19T01:18:05.586Z,0.00
2018-06-19T01:19:05.461Z,0.00
2018-06-19T01:20:59.342Z,0.00
2018-06-19T01:21:58.678Z,0.00
2018-06-19T01:23:51.984Z,0.00
2018-06-19T01:24:51.906Z,0.00
2018-06-19T01:26:45.183Z,0.00
2018-06-19T01:27:45.116Z,0.00
2018-06-19T01:29:38.415Z,0.00
2018-06-19T01:30:38.329Z,0.00
2018-06-19T01:32:32.211Z,0.00
2018-06-19T01:33:31.544Z,0.00
2018-06-19T01:35:25.690Z,0.00
2018-06-19T01:36:25.608Z,0.00
2018-06-19T01:38:18.953Z,0.00
2018-06-19T01:39:18.824Z,0.00
2018-06-19T01:41:12.207Z,0.00
2018-06-19T01:42:12.038Z,0.00
2018-06-19T01:44:05.359Z,0.00
2018-06-19T01:45:05.273Z,0.00
2018-06-19T01:46:58.655Z,0.00
2018-06-19T01:47:58.490Z,0.00
2018-06-19T01:49:51.786Z,0.00
2018-06-19T01:50:51.704Z,0.00
2018-06-19T01:52:44.979Z,0.00
2018-06-19T01:53:44.920Z,0.00
2018-06-19T01:55:38.317Z,0.00
2018-06-19T01:56:38.130Z,0.00
2018-06-19T01:58:31.536Z,0.00
2018-06-19T01:59:31.342Z,0.00
2018-06-19T02:01:24.615Z,0.00
2018-06-19T02:02:24.552Z,0.00
2018-06-19T02:04:17.953Z,0.00
2018-06-19T02:05:17.766Z,0.00
2018-06-19T02:07:11.044Z,0.00
2018-06-19T02:08:10.983Z,0.00
2018-06-19T02:10:04.360Z,0.00
2018-06-19T02:11:04.274Z,0.00
2018-06-19T02:12:58.157Z,0.00
2018-06-19T02:13:57.511Z,0.00
2018-06-19T02:15:50.806Z,0.00
2018-06-19T02:16:50.723Z,0.00
2018-06-19T02:18:44.019Z,0.00
2018-06-19T02:19:43.937Z,0.00
2018-06-19T02:21:37.218Z,0.00
2018-06-19T02:22:37.149Z,0.00
2018-06-19T02:24:30.452Z,0.00
2018-06-19T02:25:30.366Z,0.00
2018-06-19T02:27:23.645Z,0.00
2018-06-19T02:28:23.584Z,0.00
2018-06-19T02:30:16.881Z,0.00
2018-06-19T02:31:16.803Z,0.00
2018-06-19T02:33:10.076Z,0.00
2018-06-19T02:34:10.012Z,0.00
2018-06-19T02:36:03.313Z,0.00
2018-06-19T02:37:03.230Z,0.00
2018-06-19T02:38:56.563Z,0.00
2018-06-19T02:39:56.440Z,0.00
2018-06-19T02:41:49.737Z,0.00
2018-06-19T02:42:49.656Z,0.00
2018-06-19T02:44:42.954Z,0.00
2018-06-19T02:45:42.872Z,0.00
2018-06-19T02:47:36.136Z,0.00
2018-06-19T02:48:36.076Z,0.00
2018-06-19T02:50:29.480Z,0.00
2018-06-19T02:51:29.287Z,0.00
2018-06-19T02:53:22.565Z,0.00
2018-06-19T02:54:22.502Z,0.00
2018-06-19T02:56:15.803Z,0.00
2018-06-19T02:57:15.715Z,0.00
2018-06-19T02:59:09.015Z,0.00
2018-06-19T03:00:08.963Z,0.00
2018-06-19T03:02:02.331Z,0.00
2018-06-19T03:03:02.144Z,0.00
2018-06-19T03:04:55.443Z,0.00
2018-06-19T03:05:55.357Z,0.00
2018-06-19T03:07:48.627Z,0.00
2018-06-19T03:08:48.564Z,0.00
2018-06-19T03:10:41.964Z,0.00
2018-06-19T03:11:41.777Z,0.00
2018-06-19T03:13:35.057Z,0.00
2018-06-19T03:14:34.991Z,0.00
2018-06-19T03:16:28.288Z,0.00
2018-06-19T03:17:28.204Z,0.00
2018-06-19T03:19:21.501Z,0.00
2018-06-19T03:20:21.419Z,0.00
2018-06-19T03:22:14.820Z,0.00
2018-06-19T03:23:14.630Z,0.00
2018-06-19T03:25:08.033Z,0.00
2018-06-19T03:26:07.846Z,0.00
2018-06-19T03:28:01.231Z,0.00
2018-06-19T03:29:01.065Z,0.00
2018-06-19T03:30:54.465Z,0.00
2018-06-19T03:31:54.277Z,0.00
2018-06-19T03:33:47.659Z,0.00
2018-06-19T03:34:47.495Z,0.00
2018-06-19T03:36:40.785Z,0.00
2018-06-19T03:37:40.708Z,0.00
2018-06-19T03:39:33.986Z,0.00
2018-06-19T03:40:33.925Z,0.00
2018-06-19T03:42:27.215Z,0.00
2018-06-19T03:43:27.132Z,0.00
2018-06-19T03:45:20.408Z,0.00
2018-06-19T03:46:20.347Z,0.00
2018-06-19T03:48:13.746Z,0.00
2018-06-19T03:49:13.566Z,0.00
2018-06-19T03:51:06.944Z,0.00
2018-06-19T03:52:06.778Z,0.00
2018-06-19T03:54:00.074Z,0.00
2018-06-19T03:54:59.993Z,0.00
2018-06-19T03:56:53.354Z,0.00
2018-06-19T03:57:53.272Z,5.63
2018-06-19T03:59:46.548Z,5.63
2018-06-19T04:00:46.487Z,5.63
2018-06-19T04:02:39.787Z,5.63
2018-06-19T04:03:39.701Z,5.63
2018-06-19T04:05:33.084Z,5.63
2018-06-19T04:06:32.921Z,5.63
2018-06-19T04:08:26.210Z,5.63
2018-06-19T04:09:26.123Z,5.63
2018-06-19T04:11:19.399Z,5.63
2018-06-19T04:12:19.342Z,5.63
2018-06-19T04:14:12.633Z,5.63
2018-06-19T04:15:12.552Z,5.63
2018-06-19T04:17:06.005Z,5.63
2018-06-19T04:18:05.767Z,5.63
2018-06-19T04:19:59.649Z,5.63
2018-06-19T04:20:58.983Z,5.63
2018-06-19T04:22:52.276Z,5.63
2018-06-19T04:23:52.195Z,5.63
2018-06-19T04:25:45.473Z,5.63
2018-06-19T04:26:45.415Z,5.63
2018-06-19T04:28:38.706Z,5.63
2018-06-19T04:29:38.626Z,11.25
2018-06-19T04:31:32.007Z,11.25
2018-06-19T04:32:31.840Z,11.25
2018-06-19T04:34:25.243Z,22.50
2018-06-19T04:35:25.057Z,22.50
2018-06-19T04:37:18.333Z,28.13
2018-06-19T04:38:18.272Z,22.50
2018-06-19T04:40:11.569Z,16.88
2018-06-19T04:41:11.488Z,11.25
2018-06-19T04:43:04.790Z,11.25
2018-06-19T04:44:04.704Z,11.25
2018-06-19T04:45:57.980Z,11.25
2018-06-19T04:46:57.915Z,16.88
2018-06-19T04:48:51.215Z,16.88
2018-06-19T04:49:51.278Z,22.50
2018-06-19T04:51:45.017Z,28.13
2018-06-19T04:52:44.348Z,28.13
2018-06-19T04:54:37.644Z,28.13
2018-06-19T04:55:37.562Z,33.75
2018-06-19T04:57:30.831Z,33.75
2018-06-19T04:58:30.773Z,33.75
2018-06-19T05:00:24.175Z,28.13
2018-06-19T05:01:23.999Z,28.13
2018-06-19T05:03:17.356Z,33.75
2018-06-19T05:04:17.274Z,33.75
2018-06-19T05:06:10.549Z,33.75
2018-06-19T05:07:10.491Z,33.75
2018-06-19T05:09:03.784Z,28.13
2018-06-19T05:10:03.705Z,28.13
2018-06-19T05:11:57.084Z,22.50
2018-06-19T05:12:56.971Z,16.88
2018-06-19T05:14:50.214Z,16.88
2018-06-19T05:15:50.133Z,22.50
2018-06-19T05:17:43.515Z,33.75
2018-06-19T05:18:43.340Z,33.75
2018-06-19T05:20:36.638Z,39.38
2018-06-19T05:21:36.557Z,45.00
2018-06-19T05:23:29.834Z,45.00
2018-06-19T05:24:29.773Z,45.00
2018-06-19T05:26:23.070Z,39.38
2018-06-19T05:27:22.989Z,33.75
2018-06-19T05:29:16.287Z,33.75
2018-06-19T05:30:16.209Z,33.75
2018-06-19T05:32:09.479Z,39.38
2018-06-19T05:33:09.418Z,39.38
2018-06-19T05:35:02.734Z,45.00
2018-06-19T05:36:02.635Z,45.00
2018-06-19T05:37:55.914Z,45.00
2018-06-19T05:38:55.852Z,45.00
2018-06-19T05:40:49.254Z,45.00
2018-06-19T05:41:49.059Z,45.00
2018-06-19T05:43:42.329Z,45.00
2018-06-19T05:44:42.265Z,45.00
2018-06-19T05:46:35.674Z,50.63
2018-06-19T05:47:35.472Z,50.63
2018-06-19T05:49:28.751Z,50.63
2018-06-19T05:50:28.689Z,50.63
2018-06-19T05:52:22.090Z,50.63
2018-06-19T05:53:21.896Z,50.63
2018-06-19T05:55:15.185Z,50.63
2018-06-19T05:56:15.105Z,50.63
2018-06-19T05:58:08.372Z,50.63
2018-06-19T05:59:08.309Z,50.63
2018-06-19T06:01:01.711Z,39.38
2018-06-19T06:02:01.530Z,45.00
2018-06-19T06:03:54.805Z,45.00
2018-06-19T06:04:54.744Z,39.38
2018-06-19T06:06:48.041Z,45.00
2018-06-19T06:07:47.959Z,45.00
2018-06-19T06:09:41.227Z,56.25
2018-06-19T06:10:41.167Z,56.25
2018-06-19T06:12:34.463Z,50.63
2018-06-19T06:13:34.382Z,50.63
2018-06-19T06:15:27.733Z,56.25
2018-06-19T06:16:27.629Z,50.63
2018-06-19T06:18:20.940Z,50.63
2018-06-19T06:19:20.807Z,56.25
2018-06-19T06:21:14.104Z,50.63
2018-06-19T06:22:14.025Z,45.00
2018-06-19T06:24:07.335Z,56.25
2018-06-19T06:25:07.273Z,56.25
2018-06-19T06:27:00.576Z,67.50
2018-06-19T06:28:00.491Z,67.50
2018-06-19T06:29:53.769Z,56.25
2018-06-19T06:30:53.707Z,67.50
2018-06-19T06:32:47.005Z,61.88
2018-06-19T06:33:46.924Z,61.88
2018-06-19T06:35:40.225Z,67.50
2018-06-19T06:36:40.138Z,73.13
2018-06-19T06:38:33.396Z,90.00
2018-06-19T06:39:33.331Z,101.25
2018-06-19T06:41:26.620Z,106.88
2018-06-19T06:42:26.539Z,106.88
2018-06-19T06:44:19.809Z,112.50
2018-06-19T06:45:19.746Z,112.50
2018-06-19T06:47:13.038Z,118.13
2018-06-19T06:48:12.957Z,123.75
2018-06-19T06:50:06.229Z,123.75
2018-06-19T06:51:06.166Z,129.38
2018-06-19T06:52:59.572Z,140.63
2018-06-19T06:53:59.380Z,151.88
2018-06-19T06:55:52.653Z,140.63
2018-06-19T06:56:52.592Z,129.38
2018-06-19T06:58:45.882Z,118.13
2018-06-19T06:59:45.803Z,118.13
2018-06-19T07:01:39.092Z,123.75
2018-06-19T07:02:39.013Z,129.38
2018-06-19T07:04:32.283Z,135.00
2018-06-19T07:05:32.225Z,123.75
2018-06-19T07:07:25.516Z,129.38
2018-06-19T07:08:25.439Z,123.75
2018-06-19T07:10:18.744Z,135.00
2018-06-19T07:11:18.647Z,146.25
2018-06-19T07:13:11.937Z,168.75
2018-06-19T07:14:11.861Z,174.38
2018-06-19T07:16:05.131Z,185.63
2018-06-19T07:17:05.072Z,208.13
2018-06-19T07:18:58.398Z,191.25
2018-06-19T07:19:58.284Z,174.38
2018-06-19T07:21:51.674Z,185.63
2018-06-19T07:22:51.499Z,185.63
2018-06-19T07:24:44.791Z,168.75
2018-06-19T07:25:44.714Z,174.38
2018-06-19T07:27:38.006Z,157.50
2018-06-19T07:28:37.927Z,163.13
2018-06-19T07:30:31.202Z,157.50
2018-06-19T07:31:31.143Z,146.25
2018-06-19T07:33:24.444Z,151.88
2018-06-19T07:34:24.360Z,146.25
2018-06-19T07:36:17.629Z,146.25
2018-06-19T07:37:17.572Z,140.63
2018-06-19T07:39:10.865Z,146.25
2018-06-19T07:40:10.787Z,146.25
2018-06-19T07:42:04.173Z,140.63
2018-06-19T07:43:04.020Z,129.38
2018-06-19T07:44:57.314Z,146.25
2018-06-19T07:45:57.240Z,163.13
2018-06-19T07:47:50.544Z,157.50
2018-06-19T07:48:50.450Z,157.50
2018-06-19T07:50:43.724Z,140.63
2018-06-19T07:51:43.666Z,129.38
2018-06-19T07:53:36.962Z,174.38
2018-06-19T07:54:36.885Z,180.00
2018-06-19T07:56:30.157Z,163.13
2018-06-19T07:57:30.102Z,163.13
2018-06-19T07:59:23.391Z,146.25
2018-06-19T08:00:23.317Z,129.38
2018-06-19T08:02:16.703Z,112.50
2018-06-19T08:03:16.529Z,112.50
2018-06-19T08:05:09.823Z,118.13
2018-06-19T08:06:09.743Z,112.50
2018-06-19T08:08:03.155Z,90.00
2018-06-19T08:09:02.972Z,84.38
2018-06-19T08:10:56.255Z,67.50
2018-06-19T08:11:56.176Z,73.13
2018-06-19T08:13:49.466Z,78.75
2018-06-19T08:14:49.389Z,73.13
2018-06-19T08:16:42.661Z,78.75
2018-06-19T08:17:42.603Z,78.75
2018-06-19T08:19:35.893Z,78.75
2018-06-19T08:20:35.814Z,78.75
2018-06-19T08:22:29.086Z,73.13
2018-06-19T08:23:29.028Z,73.13
2018-06-19T08:25:22.431Z,106.88
2018-06-19T08:26:22.277Z,106.88
2018-06-19T08:28:15.550Z,112.50
2018-06-19T08:29:15.495Z,112.50
2018-06-19T08:31:08.781Z,101.25
2018-06-19T08:32:08.704Z,106.88
2018-06-19T08:34:02.597Z,101.25
2018-06-19T08:35:01.923Z,101.25
2018-06-19T08:36:55.214Z,112.50
2018-06-19T08:37:55.134Z,112.50
2018-06-19T08:39:48.426Z,112.50
2018-06-19T08:40:48.347Z,106.88
2018-06-19T08:42:41.777Z,112.50
2018-06-19T08:43:41.602Z,123.75
2018-06-19T08:45:34.966Z,123.75
2018-06-19T08:46:34.774Z,129.38
2018-06-19T08:48:28.049Z,135.00
2018-06-19T08:49:27.989Z,129.38
2018-06-19T08:51:21.279Z,140.63
2018-06-19T08:52:21.202Z,146.25
2018-06-19T08:54:14.504Z,151.88
2018-06-19T08:55:14.455Z,163.13
2018-06-19T08:57:07.711Z,180.00
2018-06-19T08:58:07.630Z,191.25
2018-06-19T09:00:00.923Z,180.00
2018-06-19T09:01:00.909Z,168.75
2018-06-19T09:02:54.157Z,151.88
2018-06-19T09:03:54.078Z,174.38
2018-06-19T09:05:47.373Z,213.75
2018-06-19T09:06:47.295Z,213.75
2018-06-19T09:08:40.569Z,196.88
2018-06-19T09:09:40.511Z,208.13
2018-06-19T09:11:33.922Z,185.63
2018-06-19T09:12:33.728Z,196.88
2018-06-19T09:14:27.005Z,168.75
2018-06-19T09:15:26.949Z,174.38
2018-06-19T09:17:20.245Z,196.88
2018-06-19T09:18:20.163Z,185.63
2018-06-19T09:20:13.565Z,168.75
2018-06-19T09:21:13.381Z,168.75
2018-06-19T09:23:06.787Z,168.75
2018-06-19T09:24:06.599Z,168.75
2018-06-19T09:26:00.047Z,146.25
2018-06-19T09:26:59.816Z,140.63
2018-06-19T09:28:53.091Z,135.00
2018-06-19T09:29:53.034Z,135.00
2018-06-19T09:31:46.358Z,135.00
2018-06-19T09:32:46.280Z,129.38
2018-06-19T09:34:39.555Z,146.25
2018-06-19T09:35:39.496Z,135.00
2018-06-19T09:37:32.901Z,174.38
2018-06-19T09:38:32.714Z,168.75
2018-06-19T09:40:25.995Z,123.75
2018-06-19T09:41:25.936Z,123.75
2018-06-19T09:43:19.226Z,146.25
2018-06-19T09:44:19.148Z,157.50
2018-06-19T09:46:12.423Z,129.38
2018-06-19T09:47:12.365Z,118.13
2018-06-19T09:49:05.770Z,123.75
2018-06-19T09:50:05.580Z,118.13
2018-06-19T09:51:58.915Z,95.63
2018-06-19T09:52:58.794Z,95.63
2018-06-19T09:54:52.070Z,118.13
2018-06-19T09:55:52.015Z,123.75
2018-06-19T09:57:45.305Z,146.25
2018-06-19T09:58:45.228Z,129.38
2018-06-19T10:00:38.500Z,118.13
2018-06-19T10:01:38.442Z,112.50
2018-06-19T10:03:31.847Z,106.88
2018-06-19T10:04:31.681Z,106.88
2018-06-19T10:06:24.964Z,106.88
2018-06-19T10:07:24.891Z,101.25
2018-06-19T10:09:18.183Z,106.88
2018-06-19T10:10:18.107Z,101.25
2018-06-19T10:12:11.418Z,112.50
2018-06-19T10:13:11.333Z,118.13
2018-06-19T10:15:04.612Z,118.13
2018-06-19T10:16:04.553Z,129.38
2018-06-19T10:17:57.958Z,135.00
2018-06-19T10:18:57.786Z,129.38
2018-06-19T10:20:51.052Z,112.50
2018-06-19T10:21:50.995Z,106.88
2018-06-19T10:23:44.400Z,129.38
2018-06-19T10:24:44.282Z,140.63
2018-06-19T10:26:37.558Z,129.38
2018-06-19T10:27:37.497Z,129.38
2018-06-19T10:29:30.905Z,140.63
2018-06-19T10:30:30.715Z,146.25
2018-06-19T10:32:23.992Z,146.25
2018-06-19T10:33:23.924Z,157.50
2018-06-19T10:35:17.224Z,174.38
2018-06-19T10:36:17.146Z,163.13
2018-06-19T10:38:10.443Z,151.88
2018-06-19T10:39:10.366Z,151.88
2018-06-19T10:41:03.641Z,180.00
2018-06-19T10:42:03.584Z,213.75
2018-06-19T10:43:56.880Z,208.13
2018-06-19T10:44:56.802Z,219.38
2018-06-19T10:46:50.085Z,253.13
2018-06-19T10:47:50.023Z,281.25
2018-06-19T10:49:43.317Z,281.25
2018-06-19T10:50:43.246Z,281.25
2018-06-19T10:52:36.603Z,225.00
2018-06-19T10:53:36.526Z,191.25
2018-06-19T10:55:29.781Z,163.13
2018-06-19T10:56:29.704Z,168.75
2018-06-19T10:58:22.982Z,168.75
2018-06-19T10:59:22.925Z,168.75
2018-06-19T11:01:16.225Z,191.25
2018-06-19T11:02:16.147Z,202.50
2018-06-19T11:04:09.443Z,202.50
2018-06-19T11:05:09.414Z,196.88
2018-06-19T11:07:02.651Z,180.00
2018-06-19T11:08:02.592Z,180.00
2018-06-19T11:09:56.500Z,163.13
2018-06-19T11:10:55.826Z,174.38
2018-06-19T11:12:49.092Z,196.88
2018-06-19T11:13:49.034Z,202.50
2018-06-19T11:15:42.369Z,219.38
2018-06-19T11:16:42.285Z,219.38
2018-06-19T11:18:35.572Z,241.88
2018-06-19T11:19:35.517Z,241.88
2018-06-19T11:21:28.839Z,264.38
2018-06-19T11:22:28.740Z,270.00
2018-06-19T11:24:22.049Z,275.63
2018-06-19T11:25:21.963Z,292.50
2018-06-19T11:27:15.244Z,281.25
2018-06-19T11:28:15.188Z,275.63
2018-06-19T11:30:08.486Z,258.75
2018-06-19T11:31:08.414Z,253.13
2018-06-19T11:33:01.826Z,331.88
2018-06-19T11:34:01.638Z,281.25
2018-06-19T11:35:55.050Z,270.00
2018-06-19T11:36:54.868Z,275.63
2018-06-19T11:38:48.149Z,270.00
2018-06-19T11:39:48.095Z,264.38
2018-06-19T11:41:41.395Z,241.88
2018-06-19T11:42:41.324Z,236.25
2018-06-19T11:44:34.618Z,258.75
2018-06-19T11:45:34.550Z,247.50
2018-06-19T11:47:27.961Z,208.13
2018-06-19T11:48:27.776Z,208.13
2018-06-19T11:50:21.095Z,253.13
2018-06-19T11:51:21.025Z,270.00
2018-06-19T11:53:14.343Z,247.50
2018-06-19T11:54:14.289Z,247.50
2018-06-19T11:56:07.591Z,241.88
2018-06-19T11:57:07.518Z,225.00
2018-06-19T11:59:00.803Z,208.13
2018-06-19T12:00:00.748Z,191.25
2018-06-19T12:01:54.083Z,168.75
2018-06-19T12:02:53.973Z,174.38
2018-06-19T12:04:47.255Z,185.63
2018-06-19T12:05:47.201Z,213.75
2018-06-19T12:07:40.503Z,208.13
2018-06-19T12:08:40.428Z,202.50
2018-06-19T12:10:33.820Z,225.00
2018-06-19T12:11:33.655Z,230.63
2018-06-19T12:13:26.954Z,213.75
2018-06-19T12:14:26.881Z,196.88
2018-06-19T12:16:20.181Z,180.00
2018-06-19T12:17:20.108Z,185.63
2018-06-19T12:19:13.401Z,219.38
2018-06-19T12:20:13.346Z,230.63
2018-06-19T12:22:06.645Z,219.38
2018-06-19T12:23:06.573Z,225.00
2018-06-19T12:24:59.962Z,208.13
2018-06-19T12:25:59.799Z,196.88
2018-06-19T12:27:54.101Z,174.38
2018-06-19T12:28:54.026Z,185.63
2018-06-19T12:30:47.307Z,208.13
2018-06-19T12:31:47.252Z,202.50
2018-06-19T12:33:40.601Z,202.50
2018-06-19T12:34:40.529Z,191.25
2018-06-19T12:36:34.010Z,146.25
2018-06-19T12:37:33.763Z,146.25
2018-06-19T12:39:27.056Z,163.13
2018-06-19T12:40:27.001Z,146.25
2018-06-19T12:42:20.363Z,140.63
2018-06-19T12:43:20.287Z,168.75
2018-06-19T12:45:13.580Z,286.88
2018-06-19T12:46:13.523Z,258.75
2018-06-19T12:48:06.824Z,264.38
2018-06-19T12:49:06.750Z,236.25
2018-06-19T12:51:00.140Z,208.13
2018-06-19T12:51:59.985Z,191.25
2018-06-19T12:53:53.397Z,140.63
2018-06-19T12:54:53.225Z,112.50
2018-06-19T12:56:46.504Z,146.25
2018-06-19T12:57:46.447Z,180.00
2018-06-19T12:59:39.746Z,219.38
2018-06-19T13:00:39.674Z,219.38
2018-06-19T13:02:32.979Z,241.88
2018-06-19T13:03:32.906Z,236.25
2018-06-19T13:05:26.188Z,236.25
2018-06-19T13:06:26.133Z,236.25
2018-06-19T13:08:19.437Z,230.63
2018-06-19T13:09:19.360Z,213.75
2018-06-19T13:11:12.701Z,196.88
2018-06-19T13:12:12.585Z,208.13
2018-06-19T13:14:05.996Z,196.88
2018-06-19T13:15:05.812Z,196.88
2018-06-19T13:16:59.221Z,196.88
2018-06-19T13:17:59.049Z,191.25
2018-06-19T13:19:52.362Z,185.63
2018-06-19T13:20:52.290Z,185.63
2018-06-19T13:22:45.594Z,202.50
2018-06-19T13:23:45.534Z,196.88
2018-06-19T13:25:38.907Z,208.13
2018-06-19T13:26:38.744Z,208.13
2018-06-19T13:28:32.049Z,230.63
2018-06-19T13:29:31.980Z,236.25
2018-06-19T13:31:25.371Z,225.00
2018-06-19T13:32:25.207Z,213.75
2018-06-19T13:34:18.621Z,208.13
2018-06-19T13:35:18.499Z,208.13
2018-06-19T13:37:11.726Z,202.50
2018-06-19T13:38:11.670Z,208.13
2018-06-19T13:40:04.974Z,236.25
2018-06-19T13:41:04.901Z,208.13
2018-06-19T13:42:58.310Z,213.75
2018-06-19T13:43:58.130Z,213.75
2018-06-19T13:45:51.524Z,202.50
2018-06-19T13:46:51.366Z,213.75
2018-06-19T13:48:44.677Z,213.75
2018-06-19T13:49:44.608Z,202.50
2018-06-19T13:51:37.874Z,202.50
2018-06-19T13:52:37.820Z,191.25
2018-06-19T13:54:31.125Z,168.75
2018-06-19T13:55:31.048Z,168.75
2018-06-19T13:57:24.342Z,168.75
2018-06-19T13:58:24.289Z,157.50
2018-06-19T14:00:17.592Z,146.25
2018-06-19T14:01:17.519Z,140.63
2018-06-19T14:03:10.813Z,151.88
2018-06-19T14:04:10.758Z,157.50
2018-06-19T14:06:04.167Z,163.13
2018-06-19T14:07:03.993Z,163.13
2018-06-19T14:08:57.272Z,135.00
2018-06-19T14:09:57.219Z,118.13
2018-06-19T14:11:50.520Z,95.63
2018-06-19T14:12:50.446Z,84.38
2018-06-19T14:14:43.747Z,90.00
2018-06-19T14:15:43.674Z,95.63
2018-06-19T14:17:37.065Z,106.88
2018-06-19T14:18:36.951Z,101.25
2018-06-19T14:20:30.222Z,106.88
2018-06-19T14:21:30.127Z,106.88
2018-06-19T14:23:23.407Z,129.38
2018-06-19T14:24:23.353Z,129.38
2018-06-19T14:26:16.655Z,118.13
2018-06-19T14:27:16.601Z,112.50
2018-06-19T14:29:09.864Z,101.25
2018-06-19T14:30:09.806Z,90.00
2018-06-19T14:32:03.215Z,78.75
2018-06-19T14:33:03.078Z,67.50
2018-06-19T14:34:56.363Z,56.25
2018-06-19T14:35:56.286Z,61.88
2018-06-19T14:37:49.569Z,67.50
2018-06-19T14:38:49.510Z,67.50
2018-06-19T14:40:43.921Z,50.63
2018-06-19T14:41:43.736Z,45.00
2018-06-19T14:43:37.125Z,33.75
2018-06-19T14:44:36.960Z,28.13
2018-06-19T14:46:30.255Z,28.13
2018-06-19T14:47:30.180Z,28.13
2018-06-19T14:49:23.570Z,33.75
2018-06-19T14:50:23.401Z,39.38
2018-06-19T14:52:16.699Z,28.13
2018-06-19T14:53:16.628Z,22.50
2018-06-19T14:55:10.906Z,16.88
2018-06-19T14:56:10.846Z,16.88
2018-06-19T14:58:04.143Z,22.50
2018-06-19T14:59:04.067Z,22.50
2018-06-19T15:00:57.473Z,28.13
2018-06-19T15:01:57.284Z,33.75
2018-06-19T15:03:50.677Z,33.75
2018-06-19T15:04:50.504Z,39.38
2018-06-19T15:06:43.812Z,45.00
2018-06-19T15:07:43.732Z,45.00
2018-06-19T15:09:37.010Z,50.63
2018-06-19T15:10:36.987Z,56.25
2018-06-19T15:12:30.244Z,56.25
2018-06-19T15:13:30.167Z,61.88
2018-06-19T15:15:23.555Z,67.50
2018-06-19T15:16:23.385Z,78.75
2018-06-19T15:18:16.686Z,90.00
2018-06-19T15:19:16.607Z,95.63
2018-06-19T15:21:09.901Z,112.50
2018-06-19T15:22:09.825Z,123.75
2018-06-19T15:24:03.104Z,123.75
2018-06-19T15:25:03.047Z,123.75
2018-06-19T15:26:56.408Z,118.13
2018-06-19T15:27:56.286Z,112.50
2018-06-19T15:29:49.563Z,106.88
2018-06-19T15:30:49.509Z,106.88
2018-06-19T15:32:42.807Z,95.63
2018-06-19T15:33:42.729Z,90.00
2018-06-19T15:35:36.007Z,78.75
2018-06-19T15:36:35.960Z,78.75
2018-06-19T15:38:29.254Z,84.38
2018-06-19T15:39:29.175Z,78.75
2018-06-19T15:41:22.566Z,78.75
2018-06-19T15:42:22.397Z,78.75
2018-06-19T15:44:15.729Z,73.13
2018-06-19T15:45:15.616Z,67.50
2018-06-19T15:47:08.927Z,56.25
2018-06-19T15:48:08.851Z,56.25
2018-06-19T15:50:02.129Z,56.25
2018-06-19T15:51:02.080Z,56.25
2018-06-19T15:52:55.373Z,50.63
2018-06-19T15:53:55.294Z,50.63
2018-06-19T15:55:49.571Z,50.63
2018-06-19T15:56:49.515Z,56.25
2018-06-19T15:58:42.813Z,56.25
2018-06-19T15:59:42.734Z,61.88
2018-06-19T16:01:36.121Z,67.50
2018-06-19T16:02:35.954Z,73.13
2018-06-19T16:04:30.252Z,78.75
2018-06-19T16:05:30.175Z,84.38
2018-06-19T16:07:23.474Z,90.00
2018-06-19T16:08:23.401Z,95.63
2018-06-19T16:10:16.678Z,95.63
2018-06-19T16:11:16.622Z,95.63
2018-06-19T16:13:09.915Z,78.75
2018-06-19T16:14:09.846Z,67.50
2018-06-19T16:16:03.231Z,61.88
2018-06-19T16:17:03.062Z,56.25
2018-06-19T16:18:56.363Z,45.00
2018-06-19T16:19:56.288Z,39.38
2018-06-19T16:21:49.569Z,28.13
2018-06-19T16:22:49.513Z,22.50
2018-06-19T16:24:42.809Z,16.88
2018-06-19T16:25:42.742Z,11.25
2018-06-19T16:27:36.093Z,11.25
2018-06-19T16:28:35.951Z,11.25
2018-06-19T16:30:29.348Z,11.25
2018-06-19T16:31:29.286Z,11.25
2018-06-19T16:33:22.581Z,16.88
2018-06-19T16:34:22.506Z,16.88
2018-06-19T16:36:15.784Z,16.88
2018-06-19T16:37:15.723Z,22.50
2018-06-19T16:39:09.624Z,22.50
2018-06-19T16:40:08.941Z,28.13
2018-06-19T16:42:02.221Z,33.75
2018-06-19T16:43:02.160Z,33.75
2018-06-19T16:44:55.455Z,33.75
2018-06-19T16:45:55.377Z,33.75
2018-06-19T16:47:48.726Z,33.75
2018-06-19T16:48:48.599Z,33.75
2018-06-19T16:50:41.499Z,28.13
2018-06-19T16:51:41.342Z,28.13
2018-06-19T16:53:34.645Z,28.13
2018-06-19T16:54:34.567Z,28.13
2018-06-19T16:56:28.843Z,28.13
2018-06-19T16:57:28.786Z,28.13
2018-06-19T16:59:22.077Z,28.13
2018-06-19T17:00:22.002Z,28.13
2018-06-19T17:02:15.344Z,33.75
2018-06-19T17:03:15.288Z,33.75
2018-06-19T17:05:08.578Z,39.38
2018-06-19T17:06:08.502Z,39.38
2018-06-19T17:08:01.779Z,45.00
2018-06-19T17:09:01.721Z,45.00
2018-06-19T17:10:55.125Z,50.63
2018-06-19T17:11:54.938Z,50.63
2018-06-19T17:13:48.239Z,50.63
2018-06-19T17:14:48.156Z,50.63
2018-06-19T17:16:41.452Z,56.25
2018-06-19T17:17:41.378Z,56.25
2018-06-19T17:19:34.669Z,50.63
2018-06-19T17:20:34.591Z,50.63
2018-06-19T17:22:27.868Z,45.00
2018-06-19T17:23:27.815Z,45.00
2018-06-19T17:25:21.106Z,39.38
2018-06-19T17:26:21.032Z,39.38
2018-06-19T17:28:14.348Z,33.75
2018-06-19T17:29:14.289Z,28.13
2018-06-19T17:31:07.695Z,22.50
2018-06-19T17:32:07.508Z,22.50
2018-06-19T17:34:00.785Z,22.50
2018-06-19T17:35:00.728Z,22.50
2018-06-19T17:36:54.026Z,16.88
2018-06-19T17:37:53.947Z,16.88
2018-06-19T17:39:47.255Z,16.88
2018-06-19T17:40:47.270Z,16.88
2018-06-19T17:42:40.463Z,16.88
2018-06-19T17:43:40.404Z,16.88
2018-06-19T17:45:33.813Z,16.88
2018-06-19T17:46:33.633Z,16.88
2018-06-19T17:48:26.911Z,16.88
2018-06-19T17:49:26.853Z,16.88
2018-06-19T17:51:20.296Z,16.88
2018-06-19T17:52:20.196Z,16.88
2018-06-19T17:54:12.883Z,22.50
2018-06-19T17:55:12.825Z,22.50
2018-06-19T17:57:06.735Z,22.50
2018-06-19T17:58:06.045Z,22.50
2018-06-19T17:59:59.395Z,22.50
2018-06-19T18:00:59.285Z,22.50
2018-06-19T18:02:52.692Z,22.50
2018-06-19T18:03:52.501Z,22.50
2018-06-19T18:05:45.826Z,22.50
2018-06-19T18:06:45.746Z,22.50
2018-06-19T18:08:39.132Z,22.50
2018-06-19T18:09:38.973Z,22.50
2018-06-19T18:11:32.266Z,22.50
2018-06-19T18:12:32.190Z,22.50
2018-06-19T18:14:25.464Z,22.50
2018-06-19T18:15:25.476Z,22.50
2018-06-19T18:17:18.714Z,22.50
2018-06-19T18:18:18.671Z,22.50
2018-06-19T18:20:11.906Z,22.50
2018-06-19T18:21:11.856Z,22.50
2018-06-19T18:23:06.157Z,16.88
2018-06-19T18:24:06.081Z,16.88
2018-06-19T18:25:59.467Z,16.88
2018-06-19T18:26:59.311Z,16.88
2018-06-19T18:28:52.614Z,16.88